Terminal Aerodrome Forecast
Issued by NWS

Home | Current Version | Previous Version | Text Only | Print | Product List | Glossary On
Versions: 1 2 3 4 5 6 7 8 9 10 11 12 13 14
105
FTUS44 KLZK 252337
TAFLIT
TAF
KLIT 252337Z 2600/2624 16006KT P6SM FEW050
     FM260200 VRB03KT P6SM SKC
     FM261000 VRB02KT 6SM BR SCT250
     FM261400 15005KT P6SM SCT100 SCT250
     FM261800 14006KT P6SM FEW050 SCT100 BKN250=

USA.gov is the U.S. government's official web portal to all federal, state and local government web resources and services.